createdAt,value
2019-05-25T14:51:29.630Z,100092.55
2019-05-25T14:54:02.204Z,100088.17
2019-05-25T14:56:34.782Z,100086.31
2019-05-25T14:59:07.827Z,100084.37
2019-05-25T15:01:43.664Z,100081.09
2019-05-25T15:04:17.000Z,100083.20
2019-05-25T15:06:52.080Z,100079.62
2019-05-25T15:09:24.628Z,100076.48
2019-05-25T15:12:01.730Z,100076.98
2019-05-25T15:14:37.945Z,100080.73
2019-05-25T15:17:10.590Z,100081.80
2019-05-25T15:19:44.457Z,100078.98
2019-05-25T15:22:22.917Z,100073.95
2019-05-25T15:24:57.512Z,100075.73
2019-05-25T15:27:30.465Z,100069.23
2019-05-25T15:30:06.599Z,100074.16
2019-05-25T15:32:41.158Z,100073.18
2019-05-25T15:35:14.832Z,100077.13
2019-05-25T15:37:47.949Z,100078.15
2019-05-25T15:40:20.580Z,100079.91
2019-05-25T15:42:54.371Z,100079.80
2019-05-25T15:45:28.433Z,100078.05
2019-05-25T15:48:00.917Z,100072.88
2019-05-25T15:50:35.764Z,100071.22
2019-05-25T15:53:08.332Z,100069.22
2019-05-25T15:55:41.761Z,100073.33
2019-05-25T15:58:14.519Z,100076.36
2019-05-25T16:00:50.327Z,100074.34
2019-05-25T16:03:22.977Z,100075.80
2019-05-25T16:05:56.545Z,100071.78
2019-05-25T16:08:29.641Z,100071.81
2019-05-25T16:11:04.006Z,100066.98
2019-05-25T16:13:37.269Z,100063.02
2019-05-25T16:16:11.741Z,100061.37
2019-05-25T16:18:45.582Z,100065.02
2019-05-25T16:21:18.514Z,100065.55
2019-05-25T16:23:53.661Z,100058.09
2019-05-25T16:26:28.077Z,100056.56
2019-05-25T16:29:01.166Z,100059.55
2019-05-25T16:31:34.532Z,100054.72
2019-05-25T16:34:11.690Z,100053.45
2019-05-25T16:36:48.297Z,100050.66
2019-05-25T16:39:23.991Z,100047.55
2019-05-25T16:41:58.488Z,100042.70
2019-05-25T16:44:34.747Z,100044.22
2019-05-25T16:47:09.097Z,100045.48
2019-05-25T16:49:42.233Z,100038.55
2019-05-25T16:52:15.012Z,100039.68
2019-05-25T16:54:48.706Z,100037.34
2019-05-25T16:57:22.356Z,100039.12
2019-05-25T16:59:56.996Z,100036.05
2019-05-25T17:02:30.302Z,100041.48
2019-05-25T17:05:02.838Z,100042.34
2019-05-25T17:07:36.523Z,100042.89
2019-05-25T17:10:09.072Z,100041.08
2019-05-25T17:12:42.664Z,100043.69
2019-05-25T17:15:17.966Z,100037.44
2019-05-25T17:17:51.703Z,100039.00
2019-05-25T17:20:26.006Z,100037.45
2019-05-25T17:22:59.130Z,100039.66
2019-05-25T17:25:33.102Z,100037.83
2019-05-25T17:28:06.753Z,100036.56
2019-05-25T17:30:44.291Z,100040.33
2019-05-25T17:33:16.969Z,100043.45
2019-05-25T17:35:49.584Z,100039.32
2019-05-25T17:38:23.171Z,100043.06
2019-05-25T17:41:08.892Z,100046.73
2019-05-25T17:43:45.359Z,100049.34
2019-05-25T17:46:19.361Z,100057.67
2019-05-25T17:48:53.895Z,100056.68
2019-05-25T17:51:28.572Z,100058.55
2019-05-25T17:54:12.608Z,100064.05
2019-05-25T17:56:47.385Z,100065.44
2019-05-25T17:59:21.763Z,100066.68
2019-05-25T18:01:55.933Z,100069.34
2019-05-25T18:04:29.356Z,100067.28
2019-05-25T18:07:06.632Z,100067.88
2019-05-25T18:09:40.767Z,100070.73
2019-05-25T18:12:13.476Z,100071.52
2019-05-25T18:14:47.475Z,100079.34
2019-05-25T18:17:21.533Z,100080.38
2019-05-25T18:19:56.996Z,100080.16
2019-05-25T18:22:31.399Z,100084.06
2019-05-25T18:25:12.322Z,100080.73
2019-05-25T18:27:44.874Z,100080.64
2019-05-25T18:30:17.367Z,100080.55
2019-05-25T18:32:51.342Z,100079.22
2019-05-25T18:35:25.023Z,100078.87
2019-05-25T18:37:59.368Z,100074.91
2019-05-25T18:40:37.404Z,100075.82
2019-05-25T18:43:16.592Z,100073.72
2019-05-25T18:45:51.796Z,100075.67
2019-05-25T18:48:24.426Z,100072.62
2019-05-25T18:50:58.133Z,100072.55
2019-05-25T18:53:31.624Z,100074.73
2019-05-25T18:56:04.356Z,100075.34
2019-05-25T18:58:36.956Z,100076.34
2019-05-25T19:01:10.309Z,100079.34
2019-05-25T19:03:42.940Z,100070.58
2019-05-25T19:06:16.450Z,100073.52
2019-05-25T19:08:52.402Z,100069.09
2019-05-25T19:11:25.095Z,100075.73
2019-05-25T19:14:00.210Z,100073.55
2019-05-25T19:16:32.808Z,100078.71
2019-05-25T19:19:05.988Z,100083.70
2019-05-25T19:21:38.516Z,100086.61
2019-05-25T19:24:10.893Z,100089.21
2019-05-25T19:26:45.249Z,100087.28
2019-05-25T19:29:19.860Z,100091.11
2019-05-25T19:31:54.967Z,100089.55
2019-05-25T19:34:31.604Z,100090.59
2019-05-25T19:37:05.272Z,100091.90
2019-05-25T19:39:38.685Z,100092.25
2019-05-25T19:42:12.815Z,100093.93
2019-05-25T19:44:48.366Z,100093.63
2019-05-25T19:47:21.466Z,100098.30
2019-05-25T19:49:54.881Z,100098.27
2019-05-25T19:52:28.313Z,100101.51
2019-05-25T19:55:03.263Z,100103.61
2019-05-25T19:57:36.483Z,100103.05
2019-05-25T20:00:08.369Z,100109.15
2019-05-25T20:02:40.775Z,100110.11
2019-05-25T20:05:17.785Z,100113.77
2019-05-25T20:07:52.380Z,100116.97
2019-05-25T20:10:28.202Z,100119.48
2019-05-25T20:13:00.801Z,100128.89
2019-05-25T20:15:46.571Z,100128.00
2019-05-25T20:18:28.621Z,100130.66
2019-05-25T20:21:08.191Z,100126.06
2019-05-25T20:23:43.449Z,100130.10
2019-05-25T20:26:18.472Z,100137.84
2019-05-25T20:28:51.132Z,100140.56
2019-05-25T20:31:27.597Z,100150.34
2019-05-25T20:34:01.541Z,100150.75
2019-05-25T20:36:34.608Z,100145.61
2019-05-25T20:39:08.499Z,100143.02
2019-05-25T20:41:42.017Z,100142.25
2019-05-25T20:44:16.332Z,100151.81
2019-05-25T20:46:49.527Z,100151.98
2019-05-25T20:49:23.097Z,100151.08
2019-05-25T20:51:56.663Z,100150.23
2019-05-25T20:54:29.446Z,100151.52
2019-05-25T20:57:02.098Z,100145.83
2019-05-25T20:59:35.123Z,100150.36
2019-05-25T21:02:07.704Z,100149.97
2019-05-25T21:04:42.682Z,100154.05
2019-05-25T21:07:38.907Z,100157.56
2019-05-25T21:10:12.310Z,100162.41
2019-05-25T21:12:44.880Z,100165.09
2019-05-25T21:15:21.888Z,100161.38
2019-05-25T21:17:54.830Z,100163.48
2019-05-25T21:20:29.328Z,100162.63
2019-05-25T21:23:03.735Z,100161.95
2019-05-25T21:25:38.642Z,100161.23
2019-05-25T21:28:13.388Z,100159.27
2019-05-25T21:30:47.135Z,100158.47
2019-05-25T21:33:19.512Z,100157.42
2019-05-25T21:36:07.006Z,100151.80
2019-05-25T21:38:42.763Z,100154.68
2019-05-25T21:41:18.503Z,100157.50
2019-05-25T21:43:52.197Z,100159.58
2019-05-25T21:46:24.738Z,100160.05
2019-05-25T21:48:58.479Z,100156.90
2019-05-25T21:51:33.069Z,100162.65
2019-05-25T21:54:07.259Z,100160.73
2019-05-25T21:56:41.737Z,100155.39
2019-05-25T21:59:16.258Z,100153.30
2019-05-25T22:01:49.800Z,100153.59
2019-05-25T22:04:23.447Z,100152.50
2019-05-25T22:06:57.662Z,100147.47
2019-05-25T22:09:30.305Z,100149.13
2019-05-25T22:12:05.939Z,100145.44
2019-05-25T22:14:42.068Z,100141.51
2019-05-25T22:17:15.052Z,100136.63
2019-05-25T22:19:47.490Z,100134.78
2019-05-25T22:22:22.204Z,100128.53
2019-05-25T22:24:55.757Z,100126.48
2019-05-25T22:27:29.365Z,100128.23
2019-05-25T22:30:05.310Z,100123.77
2019-05-25T22:32:39.191Z,100119.05
2019-05-25T22:35:11.699Z,100115.53
2019-05-25T22:37:44.315Z,100112.75
2019-05-25T22:40:21.551Z,100108.02
2019-05-25T22:42:54.827Z,100110.41
2019-05-25T22:45:27.336Z,100110.42
2019-05-25T22:47:59.951Z,100113.86
2019-05-25T22:50:33.256Z,100114.67
2019-05-25T22:53:05.884Z,100115.27
2019-05-25T22:55:38.436Z,100111.45
2019-05-25T22:58:12.501Z,100115.05
2019-05-25T23:00:47.115Z,100116.33
2019-05-25T23:03:19.639Z,100110.31
2019-05-25T23:05:52.299Z,100111.36
2019-05-25T23:08:25.862Z,100107.30
2019-05-25T23:10:59.436Z,100109.61
2019-05-25T23:13:32.516Z,100103.09
2019-05-25T23:16:05.786Z,100100.95
2019-05-25T23:18:38.970Z,100093.31
2019-05-25T23:21:11.674Z,100096.27
2019-05-25T23:23:44.421Z,100095.76
2019-05-25T23:26:17.585Z,100093.64
2019-05-25T23:28:51.401Z,100097.30
2019-05-25T23:31:26.622Z,100103.30
2019-05-25T23:34:00.657Z,100097.53
2019-05-25T23:36:34.832Z,100098.00
2019-05-25T23:39:09.647Z,100098.58
2019-05-25T23:41:43.338Z,100099.55
2019-05-25T23:44:15.923Z,100101.66
2019-05-25T23:46:49.413Z,100100.83
2019-05-25T23:49:22.043Z,100095.38
2019-05-25T23:51:54.607Z,100093.30
2019-05-25T23:54:27.247Z,100091.34
2019-05-25T23:57:01.629Z,100094.58
2019-05-25T23:59:35.101Z,100092.46
